sensor_id;sensor_type;location;lat;lon;timestamp;pressure;altitude;pressure_sealevel;temperature;humidity
74334;BME280;62753;40.394;-80.022;2023-08-06T00:01:37;97307.44;;;33.64;22.85
74334;BME280;62753;40.394;-80.022;2023-08-06T00:04:02;97299.42;;;32.47;23.51
74334;BME280;62753;40.394;-80.022;2023-08-06T00:06:27;97298.82;;;32.66;23.48
74334;BME280;62753;40.394;-80.022;2023-08-06T00:08:52;97299.52;;;32.63;23.62
74334;BME280;62753;40.394;-80.022;2023-08-06T00:11:18;97298.04;;;32.73;23.44
74334;BME280;62753;40.394;-80.022;2023-08-06T00:13:43;97297.99;;;33.02;23.06
74334;BME280;62753;40.394;-80.022;2023-08-06T00:16:10;97300.36;;;32.99;23.03
74334;BME280;62753;40.394;-80.022;2023-08-06T00:18:34;97301.55;;;33.14;23.20
74334;BME280;62753;40.394;-80.022;2023-08-06T00:20:59;97300.94;;;32.44;23.81
74334;BME280;62753;40.394;-80.022;2023-08-06T00:23:25;97306.92;;;33.19;23.03
74334;BME280;62753;40.394;-80.022;2023-08-06T00:25:50;97308.73;;;33.03;23.43
74334;BME280;62753;40.394;-80.022;2023-08-06T00:28:16;97307.71;;;33.16;23.52
74334;BME280;62753;40.394;-80.022;2023-08-06T00:30:42;97307.25;;;32.98;23.59
74334;BME280;62753;40.394;-80.022;2023-08-06T00:33:07;97304.79;;;32.98;23.45
74334;BME280;62753;40.394;-80.022;2023-08-06T00:35:33;97306.41;;;32.86;23.18
74334;BME280;62753;40.394;-80.022;2023-08-06T00:37:59;97305.56;;;33.13;22.46
74334;BME280;62753;40.394;-80.022;2023-08-06T00:40:24;97304.14;;;33.06;22.73
74334;BME280;62753;40.394;-80.022;2023-08-06T00:42:49;97303.83;;;32.99;23.32
74334;BME280;62753;40.394;-80.022;2023-08-06T00:45:15;97306.86;;;33.36;23.41
74334;BME280;62753;40.394;-80.022;2023-08-06T00:47:41;97304.70;;;33.10;23.52
74334;BME280;62753;40.394;-80.022;2023-08-06T00:50:06;97307.21;;;32.57;23.84
74334;BME280;62753;40.394;-80.022;2023-08-06T00:52:32;97305.00;;;33.48;23.51
74334;BME280;62753;40.394;-80.022;2023-08-06T00:54:57;97307.30;;;33.69;23.26
74334;BME280;62753;40.394;-80.022;2023-08-06T00:57:24;97299.75;;;34.04;22.42
74334;BME280;62753;40.394;-80.022;2023-08-06T00:59:48;97299.18;;;33.49;23.63
74334;BME280;62753;40.394;-80.022;2023-08-06T01:02:12;97297.78;;;33.16;22.91
74334;BME280;62753;40.394;-80.022;2023-08-06T01:04:38;97292.60;;;33.29;23.33
74334;BME280;62753;40.394;-80.022;2023-08-06T01:07:10;97292.83;;;33.49;23.05
74334;BME280;62753;40.394;-80.022;2023-08-06T01:09:35;97289.64;;;33.76;22.78
74334;BME280;62753;40.394;-80.022;2023-08-06T01:12:04;97293.91;;;32.66;23.99
74334;BME280;62753;40.394;-80.022;2023-08-06T01:14:26;97291.35;;;33.03;23.80
74334;BME280;62753;40.394;-80.022;2023-08-06T01:16:45;97295.21;;;33.24;23.78
74334;BME280;62753;40.394;-80.022;2023-08-06T01:19:16;97296.29;;;32.54;24.68
74334;BME280;62753;40.394;-80.022;2023-08-06T01:21:36;97295.30;;;32.73;24.71
74334;BME280;62753;40.394;-80.022;2023-08-06T01:24:02;97300.04;;;32.30;25.14
74334;BME280;62753;40.394;-80.022;2023-08-06T01:26:33;97303.78;;;32.15;24.96
74334;BME280;62753;40.394;-80.022;2023-08-06T01:29:05;97309.77;;;32.92;24.91
74334;BME280;62753;40.394;-80.022;2023-08-06T01:31:22;97310.76;;;32.29;25.28
74334;BME280;62753;40.394;-80.022;2023-08-06T01:33:45;97311.58;;;32.42;25.06
74334;BME280;62753;40.394;-80.022;2023-08-06T01:36:08;97311.71;;;32.34;25.06
74334;BME280;62753;40.394;-80.022;2023-08-06T01:38:33;97311.81;;;32.55;25.03
74334;BME280;62753;40.394;-80.022;2023-08-06T01:40:58;97317.47;;;32.88;24.74
74334;BME280;62753;40.394;-80.022;2023-08-06T01:43:24;97315.94;;;30.62;26.66
74334;BME280;62753;40.394;-80.022;2023-08-06T01:45:49;97317.31;;;31.70;26.02
74334;BME280;62753;40.394;-80.022;2023-08-06T01:48:14;97319.03;;;32.41;25.72
74334;BME280;62753;40.394;-80.022;2023-08-06T01:50:40;97319.58;;;32.31;25.28
74334;BME280;62753;40.394;-80.022;2023-08-06T01:53:05;97322.43;;;31.85;25.32
74334;BME280;62753;40.394;-80.022;2023-08-06T01:55:30;97326.51;;;32.05;25.45
74334;BME280;62753;40.394;-80.022;2023-08-06T01:57:55;97327.19;;;32.30;25.15
74334;BME280;62753;40.394;-80.022;2023-08-06T02:00:21;97331.04;;;32.21;25.51
74334;BME280;62753;40.394;-80.022;2023-08-06T02:02:47;97331.25;;;32.44;25.13
74334;BME280;62753;40.394;-80.022;2023-08-06T02:05:12;97331.89;;;32.21;25.61
74334;BME280;62753;40.394;-80.022;2023-08-06T02:07:37;97328.72;;;32.48;25.53
74334;BME280;62753;40.394;-80.022;2023-08-06T02:10:04;97332.51;;;33.54;24.18
74334;BME280;62753;40.394;-80.022;2023-08-06T02:12:29;97331.34;;;33.32;24.07
74334;BME280;62753;40.394;-80.022;2023-08-06T02:14:54;97331.39;;;32.75;24.52
74334;BME280;62753;40.394;-80.022;2023-08-06T02:17:19;97328.21;;;32.73;25.00
74334;BME280;62753;40.394;-80.022;2023-08-06T02:19:45;97326.10;;;32.41;25.21
74334;BME280;62753;40.394;-80.022;2023-08-06T02:22:10;97330.41;;;33.18;24.48
74334;BME280;62753;40.394;-80.022;2023-08-06T02:24:35;97327.26;;;33.51;24.59
74334;BME280;62753;40.394;-80.022;2023-08-06T02:27:01;97319.90;;;32.71;25.11
74334;BME280;62753;40.394;-80.022;2023-08-06T02:29:26;97317.17;;;32.90;25.22
74334;BME280;62753;40.394;-80.022;2023-08-06T02:31:52;97318.58;;;32.85;25.15
74334;BME280;62753;40.394;-80.022;2023-08-06T02:34:18;97315.15;;;32.89;24.91
74334;BME280;62753;40.394;-80.022;2023-08-06T02:36:43;97307.49;;;32.17;25.76
74334;BME280;62753;40.394;-80.022;2023-08-06T02:39:08;97309.03;;;32.43;25.88
74334;BME280;62753;40.394;-80.022;2023-08-06T02:41:33;97312.44;;;32.43;25.77
74334;BME280;62753;40.394;-80.022;2023-08-06T02:43:58;97315.52;;;32.21;26.25
74334;BME280;62753;40.394;-80.022;2023-08-06T02:46:23;97316.66;;;31.82;26.49
74334;BME280;62753;40.394;-80.022;2023-08-06T02:48:49;97316.11;;;31.99;26.13
74334;BME280;62753;40.394;-80.022;2023-08-06T02:51:14;97319.29;;;32.12;26.40
74334;BME280;62753;40.394;-80.022;2023-08-06T02:53:40;97319.77;;;32.17;26.46
74334;BME280;62753;40.394;-80.022;2023-08-06T02:56:05;97319.01;;;32.17;26.56
74334;BME280;62753;40.394;-80.022;2023-08-06T02:58:30;97322.42;;;31.28;27.23
74334;BME280;62753;40.394;-80.022;2023-08-06T03:01:00;97324.97;;;31.73;27.40
74334;BME280;62753;40.394;-80.022;2023-08-06T03:03:22;97322.09;;;31.86;26.65
74334;BME280;62753;40.394;-80.022;2023-08-06T03:05:52;97325.49;;;32.02;26.84
74334;BME280;62753;40.394;-80.022;2023-08-06T03:08:12;97328.52;;;31.76;26.55
74334;BME280;62753;40.394;-80.022;2023-08-06T03:10:38;97329.37;;;31.56;26.76
74334;BME280;62753;40.394;-80.022;2023-08-06T03:13:03;97328.80;;;31.90;26.78
74334;BME280;62753;40.394;-80.022;2023-08-06T03:15:29;97327.66;;;31.80;27.17
74334;BME280;62753;40.394;-80.022;2023-08-06T03:17:56;97325.34;;;32.02;27.05
74334;BME280;62753;40.394;-80.022;2023-08-06T03:20:20;97327.73;;;31.60;27.46
74334;BME280;62753;40.394;-80.022;2023-08-06T03:22:46;97329.31;;;31.63;27.33
74334;BME280;62753;40.394;-80.022;2023-08-06T03:25:10;97328.86;;;31.66;27.29
74334;BME280;62753;40.394;-80.022;2023-08-06T03:27:37;97325.27;;;31.48;27.34
74334;BME280;62753;40.394;-80.022;2023-08-06T03:30:01;97321.78;;;31.61;27.52
74334;BME280;62753;40.394;-80.022;2023-08-06T03:32:27;97320.35;;;31.40;27.86
74334;BME280;62753;40.394;-80.022;2023-08-06T03:34:52;97316.53;;;30.66;28.54
74334;BME280;62753;40.394;-80.022;2023-08-06T03:37:17;97311.59;;;31.41;27.40
74334;BME280;62753;40.394;-80.022;2023-08-06T03:39:43;97308.60;;;31.99;26.89
74334;BME280;62753;40.394;-80.022;2023-08-06T03:42:08;97308.42;;;31.66;27.28
74334;BME280;62753;40.394;-80.022;2023-08-06T03:44:34;97304.26;;;31.12;27.99
74334;BME280;62753;40.394;-80.022;2023-08-06T03:47:00;97305.28;;;31.40;27.80
74334;BME280;62753;40.394;-80.022;2023-08-06T03:49:25;97304.87;;;31.68;27.67
74334;BME280;62753;40.394;-80.022;2023-08-06T03:51:51;97310.73;;;31.43;27.78
74334;BME280;62753;40.394;-80.022;2023-08-06T03:54:17;97314.78;;;31.81;27.76
74334;BME280;62753;40.394;-80.022;2023-08-06T03:56:42;97316.98;;;31.14;28.13
74334;BME280;62753;40.394;-80.022;2023-08-06T03:59:08;97314.41;;;31.28;27.81
74334;BME280;62753;40.394;-80.022;2023-08-06T04:01:34;97310.17;;;31.16;28.23
74334;BME280;62753;40.394;-80.022;2023-08-06T04:03:59;97307.68;;;31.00;28.51
74334;BME280;62753;40.394;-80.022;2023-08-06T04:06:24;97303.77;;;30.44;29.55
74334;BME280;62753;40.394;-80.022;2023-08-06T04:08:50;97304.29;;;30.88;29.24
74334;BME280;62753;40.394;-80.022;2023-08-06T04:11:16;97299.64;;;29.88;30.83
74334;BME280;62753;40.394;-80.022;2023-08-06T04:13:43;97298.58;;;29.99;30.82
74334;BME280;62753;40.394;-80.022;2023-08-06T04:16:07;97297.74;;;30.10;30.90
74334;BME280;62753;40.394;-80.022;2023-08-06T04:18:33;97295.77;;;30.20;30.34
74334;BME280;62753;40.394;-80.022;2023-08-06T04:20:59;97297.19;;;30.03;30.78
74334;BME280;62753;40.394;-80.022;2023-08-06T04:23:24;97298.56;;;29.87;31.69
74334;BME280;62753;40.394;-80.022;2023-08-06T04:25:49;97299.13;;;29.57;32.07
74334;BME280;62753;40.394;-80.022;2023-08-06T04:28:14;97303.55;;;29.85;31.69
74334;BME280;62753;40.394;-80.022;2023-08-06T04:30:40;97301.05;;;29.86;31.72
74334;BME280;62753;40.394;-80.022;2023-08-06T04:33:06;97307.13;;;30.33;31.15
74334;BME280;62753;40.394;-80.022;2023-08-06T04:35:31;97308.97;;;30.65;30.89
74334;BME280;62753;40.394;-80.022;2023-08-06T04:37:57;97309.03;;;30.81;30.35
74334;BME280;62753;40.394;-80.022;2023-08-06T04:40:23;97312.00;;;30.88;29.92
74334;BME280;62753;40.394;-80.022;2023-08-06T04:42:48;97315.84;;;31.29;29.51
74334;BME280;62753;40.394;-80.022;2023-08-06T04:45:13;97323.11;;;31.36;29.41
74334;BME280;62753;40.394;-80.022;2023-08-06T04:47:38;97323.66;;;31.30;29.16
74334;BME280;62753;40.394;-80.022;2023-08-06T04:50:05;97318.78;;;31.11;29.07
74334;BME280;62753;40.394;-80.022;2023-08-06T04:52:29;97314.90;;;31.77;28.82
74334;BME280;62753;40.394;-80.022;2023-08-06T04:54:55;97313.19;;;31.69;28.92
74334;BME280;62753;40.394;-80.022;2023-08-06T04:57:21;97313.02;;;31.13;29.36
74334;BME280;62753;40.394;-80.022;2023-08-06T04:59:47;97308.39;;;31.24;29.70
74334;BME280;62753;40.394;-80.022;2023-08-06T05:02:12;97308.71;;;31.09;29.84
74334;BME280;62753;40.394;-80.022;2023-08-06T05:04:38;97309.00;;;31.07;29.87
74334;BME280;62753;40.394;-80.022;2023-08-06T05:07:03;97315.18;;;31.30;29.85
74334;BME280;62753;40.394;-80.022;2023-08-06T05:09:28;97314.37;;;31.36;29.49
74334;BME280;62753;40.394;-80.022;2023-08-06T05:11:54;97312.33;;;31.51;29.51
74334;BME280;62753;40.394;-80.022;2023-08-06T05:14:18;97308.72;;;31.28;29.85
74334;BME280;62753;40.394;-80.022;2023-08-06T05:16:44;97303.81;;;31.89;29.63
74334;BME280;62753;40.394;-80.022;2023-08-06T05:19:10;97306.39;;;31.57;29.77
74334;BME280;62753;40.394;-80.022;2023-08-06T05:21:35;97308.62;;;31.21;30.13
74334;BME280;62753;40.394;-80.022;2023-08-06T05:24:01;97305.82;;;30.42;31.88
74334;BME280;62753;40.394;-80.022;2023-08-06T05:26:27;97302.07;;;30.13;32.10
74334;BME280;62753;40.394;-80.022;2023-08-06T05:28:52;97303.37;;;30.28;32.05
74334;BME280;62753;40.394;-80.022;2023-08-06T05:31:17;97305.80;;;30.71;31.94
74334;BME280;62753;40.394;-80.022;2023-08-06T05:33:44;97306.89;;;30.48;32.18
74334;BME280;62753;40.394;-80.022;2023-08-06T05:36:09;97307.24;;;30.45;32.32
74334;BME280;62753;40.394;-80.022;2023-08-06T05:38:34;97300.97;;;30.22;32.83
74334;BME280;62753;40.394;-80.022;2023-08-06T05:40:59;97296.78;;;30.04;33.54
74334;BME280;62753;40.394;-80.022;2023-08-06T05:43:25;97297.11;;;30.13;33.76
74334;BME280;62753;40.394;-80.022;2023-08-06T05:45:51;97295.39;;;29.30;34.63
74334;BME280;62753;40.394;-80.022;2023-08-06T05:48:16;97290.44;;;29.49;34.26
74334;BME280;62753;40.394;-80.022;2023-08-06T05:50:42;97287.22;;;30.05;34.38
74334;BME280;62753;40.394;-80.022;2023-08-06T05:53:07;97287.80;;;29.42;34.45
74334;BME280;62753;40.394;-80.022;2023-08-06T05:55:33;97286.39;;;29.99;33.45
74334;BME280;62753;40.394;-80.022;2023-08-06T05:57:58;97284.03;;;30.25;32.97
74334;BME280;62753;40.394;-80.022;2023-08-06T06:00:24;97285.22;;;30.59;32.61
74334;BME280;62753;40.394;-80.022;2023-08-06T06:02:49;97283.94;;;30.47;32.59
74334;BME280;62753;40.394;-80.022;2023-08-06T06:05:15;97284.37;;;30.16;32.93
74334;BME280;62753;40.394;-80.022;2023-08-06T06:07:40;97285.20;;;30.60;32.21
74334;BME280;62753;40.394;-80.022;2023-08-06T06:10:07;97283.24;;;30.65;32.14
74334;BME280;62753;40.394;-80.022;2023-08-06T06:12:31;97279.10;;;30.74;32.12
74334;BME280;62753;40.394;-80.022;2023-08-06T06:14:57;97279.84;;;30.57;32.27
74334;BME280;62753;40.394;-80.022;2023-08-06T06:17:23;97278.27;;;31.25;31.67
74334;BME280;62753;40.394;-80.022;2023-08-06T06:19:48;97273.37;;;30.50;32.25
74334;BME280;62753;40.394;-80.022;2023-08-06T06:22:14;97264.84;;;30.26;33.19
74334;BME280;62753;40.394;-80.022;2023-08-06T06:24:39;97261.51;;;30.19;33.53
74334;BME280;62753;40.394;-80.022;2023-08-06T06:27:05;97254.37;;;29.94;34.12
74334;BME280;62753;40.394;-80.022;2023-08-06T06:29:30;97251.12;;;29.72;34.52
74334;BME280;62753;40.394;-80.022;2023-08-06T06:31:55;97253.67;;;30.20;34.13
74334;BME280;62753;40.394;-80.022;2023-08-06T06:34:21;97249.62;;;29.91;33.79
74334;BME280;62753;40.394;-80.022;2023-08-06T06:36:47;97246.73;;;30.01;33.56
74334;BME280;62753;40.394;-80.022;2023-08-06T06:39:12;97248.50;;;30.39;33.01
74334;BME280;62753;40.394;-80.022;2023-08-06T06:41:37;97241.67;;;30.51;32.89
74334;BME280;62753;40.394;-80.022;2023-08-06T06:44:03;97237.57;;;30.23;33.09
74334;BME280;62753;40.394;-80.022;2023-08-06T06:46:29;97234.49;;;29.81;33.68
74334;BME280;62753;40.394;-80.022;2023-08-06T06:48:54;97237.46;;;30.09;33.75
74334;BME280;62753;40.394;-80.022;2023-08-06T06:51:20;97237.74;;;29.79;34.17
74334;BME280;62753;40.394;-80.022;2023-08-06T06:53:45;97236.14;;;29.36;34.64
74334;BME280;62753;40.394;-80.022;2023-08-06T06:56:10;97238.26;;;29.26;34.76
74334;BME280;62753;40.394;-80.022;2023-08-06T06:58:36;97244.16;;;28.77;35.47
74334;BME280;62753;40.394;-80.022;2023-08-06T07:01:00;97237.16;;;30.02;33.86
74334;BME280;62753;40.394;-80.022;2023-08-06T07:03:27;97232.43;;;29.65;34.57
74334;BME280;62753;40.394;-80.022;2023-08-06T07:05:56;97233.57;;;29.95;34.57
74334;BME280;62753;40.394;-80.022;2023-08-06T07:08:18;97237.38;;;29.61;34.16
74334;BME280;62753;40.394;-80.022;2023-08-06T07:10:43;97232.39;;;29.26;34.90
74334;BME280;62753;40.394;-80.022;2023-08-06T07:13:08;97235.92;;;28.55;36.50
74334;BME280;62753;40.394;-80.022;2023-08-06T07:15:34;97237.24;;;28.56;36.83
74334;BME280;62753;40.394;-80.022;2023-08-06T07:18:00;97236.56;;;28.60;36.63
74334;BME280;62753;40.394;-80.022;2023-08-06T07:20:26;97238.22;;;28.87;36.17
74334;BME280;62753;40.394;-80.022;2023-08-06T07:22:51;97234.73;;;28.72;35.97
74334;BME280;62753;40.394;-80.022;2023-08-06T07:25:17;97237.28;;;28.73;35.71
74334;BME280;62753;40.394;-80.022;2023-08-06T07:27:42;97237.68;;;29.47;35.18
74334;BME280;62753;40.394;-80.022;2023-08-06T07:30:08;97235.99;;;29.09;35.59
74334;BME280;62753;40.394;-80.022;2023-08-06T07:32:32;97231.23;;;28.60;36.24
74334;BME280;62753;40.394;-80.022;2023-08-06T07:34:58;97225.57;;;29.12;35.97
74334;BME280;62753;40.394;-80.022;2023-08-06T07:37:24;97218.35;;;29.02;35.90
74334;BME280;62753;40.394;-80.022;2023-08-06T07:39:50;97214.16;;;29.13;35.25
74334;BME280;62753;40.394;-80.022;2023-08-06T07:42:15;97216.35;;;28.84;35.97
74334;BME280;62753;40.394;-80.022;2023-08-06T07:44:41;97213.95;;;29.23;35.37
74334;BME280;62753;40.394;-80.022;2023-08-06T07:47:06;97218.90;;;28.42;36.76
74334;BME280;62753;40.394;-80.022;2023-08-06T07:49:31;97214.39;;;28.22;37.45
74334;BME280;62753;40.394;-80.022;2023-08-06T07:51:57;97205.92;;;28.66;36.66
74334;BME280;62753;40.394;-80.022;2023-08-06T07:54:22;97197.01;;;28.57;36.61
74334;BME280;62753;40.394;-80.022;2023-08-06T07:56:46;97195.03;;;28.38;37.20
74334;BME280;62753;40.394;-80.022;2023-08-06T07:59:12;97192.09;;;28.29;37.56
74334;BME280;62753;40.394;-80.022;2023-08-06T08:01:38;97190.41;;;27.89;38.20
74334;BME280;62753;40.394;-80.022;2023-08-06T08:04:04;97192.20;;;27.96;38.19
74334;BME280;62753;40.394;-80.022;2023-08-06T08:06:29;97196.34;;;27.89;38.32
74334;BME280;62753;40.394;-80.022;2023-08-06T08:08:55;97193.21;;;27.54;38.98
74334;BME280;62753;40.394;-80.022;2023-08-06T08:11:21;97191.95;;;27.98;38.20
74334;BME280;62753;40.394;-80.022;2023-08-06T08:13:46;97190.29;;;28.41;37.49
74334;BME280;62753;40.394;-80.022;2023-08-06T08:16:11;97182.63;;;28.64;36.84
74334;BME280;62753;40.394;-80.022;2023-08-06T08:18:38;97184.74;;;28.76;36.74
74334;BME280;62753;40.394;-80.022;2023-08-06T08:21:03;97185.08;;;28.64;36.60
74334;BME280;62753;40.394;-80.022;2023-08-06T08:23:28;97178.80;;;28.73;36.57
74334;BME280;62753;40.394;-80.022;2023-08-06T08:25:54;97179.46;;;27.92;38.34
74334;BME280;62753;40.394;-80.022;2023-08-06T08:28:19;97179.88;;;28.54;36.92
74334;BME280;62753;40.394;-80.022;2023-08-06T08:30:44;97179.61;;;28.37;36.85
74334;BME280;62753;40.394;-80.022;2023-08-06T08:33:10;97180.55;;;28.46;36.91
74334;BME280;62753;40.394;-80.022;2023-08-06T08:35:36;97179.12;;;28.58;36.43
74334;BME280;62753;40.394;-80.022;2023-08-06T08:38:00;97178.94;;;28.65;36.34
74334;BME280;62753;40.394;-80.022;2023-08-06T08:40:31;97179.68;;;28.51;36.77
74334;BME280;62753;40.394;-80.022;2023-08-06T08:42:51;97183.56;;;28.45;36.85
74334;BME280;62753;40.394;-80.022;2023-08-06T08:45:19;97185.04;;;29.31;35.75
74334;BME280;62753;40.394;-80.022;2023-08-06T08:47:43;97188.52;;;29.17;36.07
74334;BME280;62753;40.394;-80.022;2023-08-06T08:50:08;97188.78;;;28.88;36.00
74334;BME280;62753;40.394;-80.022;2023-08-06T08:52:34;97188.31;;;28.97;35.99
74334;BME280;62753;40.394;-80.022;2023-08-06T08:55:00;97185.09;;;28.62;36.48
74334;BME280;62753;40.394;-80.022;2023-08-06T08:57:24;97182.81;;;28.91;36.05
74334;BME280;62753;40.394;-80.022;2023-08-06T08:59:49;97185.58;;;28.28;36.75
74334;BME280;62753;40.394;-80.022;2023-08-06T09:02:15;97191.22;;;28.85;36.73
74334;BME280;62753;40.394;-80.022;2023-08-06T09:04:40;97194.56;;;28.61;37.05
74334;BME280;62753;40.394;-80.022;2023-08-06T09:07:06;97195.83;;;28.52;37.10
74334;BME280;62753;40.394;-80.022;2023-08-06T09:09:33;97194.99;;;28.66;37.14
74334;BME280;62753;40.394;-80.022;2023-08-06T09:12:01;97197.59;;;28.64;37.40
74334;BME280;62753;40.394;-80.022;2023-08-06T09:14:21;97198.43;;;28.19;37.39
74334;BME280;62753;40.394;-80.022;2023-08-06T09:16:47;97197.64;;;28.00;37.44
74334;BME280;62753;40.394;-80.022;2023-08-06T09:19:14;97191.32;;;28.38;36.90
74334;BME280;62753;40.394;-80.022;2023-08-06T09:21:38;97185.12;;;29.15;35.69
74334;BME280;62753;40.394;-80.022;2023-08-06T09:24:07;97183.06;;;29.25;35.77
74334;BME280;62753;40.394;-80.022;2023-08-06T09:26:34;97185.46;;;28.80;36.67
74334;BME280;62753;40.394;-80.022;2023-08-06T09:28:54;97183.87;;;28.70;36.61
74334;BME280;62753;40.394;-80.022;2023-08-06T09:31:19;97188.67;;;28.15;37.44
74334;BME280;62753;40.394;-80.022;2023-08-06T09:33:45;97188.31;;;28.24;37.60
74334;BME280;62753;40.394;-80.022;2023-08-06T09:36:11;97188.17;;;28.22;37.61
74334;BME280;62753;40.394;-80.022;2023-08-06T09:38:39;97189.76;;;27.56;38.37
74334;BME280;62753;40.394;-80.022;2023-08-06T09:41:01;97190.53;;;27.76;38.56
74334;BME280;62753;40.394;-80.022;2023-08-06T09:43:26;97188.81;;;27.76;38.59
74334;BME280;62753;40.394;-80.022;2023-08-06T09:45:51;97185.08;;;27.39;39.41
74334;BME280;62753;40.394;-80.022;2023-08-06T09:48:16;97185.31;;;27.19;39.48
74334;BME280;62753;40.394;-80.022;2023-08-06T09:50:42;97192.88;;;27.49;39.83
74334;BME280;62753;40.394;-80.022;2023-08-06T09:53:09;97194.13;;;27.04;40.29
74334;BME280;62753;40.394;-80.022;2023-08-06T09:55:34;97190.33;;;27.31;40.31
74334;BME280;62753;40.394;-80.022;2023-08-06T09:57:59;97189.92;;;26.70;40.59
74334;BME280;62753;40.394;-80.022;2023-08-06T10:00:24;97189.29;;;26.65;40.75
74334;BME280;62753;40.394;-80.022;2023-08-06T10:02:50;97188.75;;;26.77;40.73
74334;BME280;62753;40.394;-80.022;2023-08-06T10:05:16;97186.10;;;26.91;40.96
74334;BME280;62753;40.394;-80.022;2023-08-06T10:07:43;97183.78;;;27.07;40.76
74334;BME280;62753;40.394;-80.022;2023-08-06T10:10:06;97180.99;;;26.44;41.85
74334;BME280;62753;40.394;-80.022;2023-08-06T10:12:34;97188.25;;;26.16;42.39
74334;BME280;62753;40.394;-80.022;2023-08-06T10:14:58;97184.43;;;26.04;42.13
74334;BME280;62753;40.394;-80.022;2023-08-06T10:17:21;97182.02;;;26.24;41.53
74334;BME280;62753;40.394;-80.022;2023-08-06T10:19:46;97179.66;;;26.49;41.35
74334;BME280;62753;40.394;-80.022;2023-08-06T10:22:13;97177.76;;;26.48;41.04
74334;BME280;62753;40.394;-80.022;2023-08-06T10:24:47;97173.68;;;27.12;40.50
74334;BME280;62753;40.394;-80.022;2023-08-06T10:27:04;97170.61;;;26.88;40.65
74334;BME280;62753;40.394;-80.022;2023-08-06T10:29:37;97168.99;;;26.25;41.38
74334;BME280;62753;40.394;-80.022;2023-08-06T10:31:54;97165.06;;;26.46;41.79
74334;BME280;62753;40.394;-80.022;2023-08-06T10:34:19;97170.13;;;26.46;41.85
74334;BME280;62753;40.394;-80.022;2023-08-06T10:36:45;97173.13;;;26.79;41.38
74334;BME280;62753;40.394;-80.022;2023-08-06T10:39:14;97174.28;;;26.18;41.78
74334;BME280;62753;40.394;-80.022;2023-08-06T10:41:36;97179.36;;;26.46;40.80
74334;BME280;62753;40.394;-80.022;2023-08-06T10:44:06;97181.63;;;27.14;39.86
74334;BME280;62753;40.394;-80.022;2023-08-06T10:46:28;97182.79;;;27.49;39.36
74334;BME280;62753;40.394;-80.022;2023-08-06T10:48:53;97180.31;;;27.32;39.04
74334;BME280;62753;40.394;-80.022;2023-08-06T10:51:18;97177.12;;;27.20;39.37
74334;BME280;62753;40.394;-80.022;2023-08-06T10:53:45;97175.74;;;27.32;40.03
74334;BME280;62753;40.394;-80.022;2023-08-06T10:56:12;97173.70;;;26.61;41.34
74334;BME280;62753;40.394;-80.022;2023-08-06T10:58:35;97174.52;;;25.55;42.81
74334;BME280;62753;40.394;-80.022;2023-08-06T11:01:00;97178.40;;;26.33;42.15
74334;BME280;62753;40.394;-80.022;2023-08-06T11:03:27;97176.32;;;26.63;40.92
74334;BME280;62753;40.394;-80.022;2023-08-06T11:05:51;97182.39;;;27.15;40.45
74334;BME280;62753;40.394;-80.022;2023-08-06T11:08:23;97187.16;;;27.77;39.41
74334;BME280;62753;40.394;-80.022;2023-08-06T11:10:40;97192.34;;;27.72;38.78
74334;BME280;62753;40.394;-80.022;2023-08-06T11:13:07;97192.33;;;27.57;38.76
74334;BME280;62753;40.394;-80.022;2023-08-06T11:15:32;97200.31;;;28.33;37.39
74334;BME280;62753;40.394;-80.022;2023-08-06T11:17:57;97204.99;;;27.88;37.35
74334;BME280;62753;40.394;-80.022;2023-08-06T11:20:22;97201.52;;;28.63;36.54
74334;BME280;62753;40.394;-80.022;2023-08-06T11:22:48;97196.23;;;28.58;36.32
74334;BME280;62753;40.394;-80.022;2023-08-06T11:25:12;97193.72;;;29.04;35.78
74334;BME280;62753;40.394;-80.022;2023-08-06T11:27:38;97192.17;;;29.06;35.98
74334;BME280;62753;40.394;-80.022;2023-08-06T11:30:04;97184.61;;;28.69;36.91
74334;BME280;62753;40.394;-80.022;2023-08-06T11:32:28;97176.79;;;27.90;37.68
74334;BME280;62753;40.394;-80.022;2023-08-06T11:34:54;97175.29;;;28.65;36.50
74334;BME280;62753;40.394;-80.022;2023-08-06T11:37:21;97176.81;;;28.51;36.71
74334;BME280;62753;40.394;-80.022;2023-08-06T11:39:47;97168.50;;;27.17;38.52
74334;BME280;62753;40.394;-80.022;2023-08-06T11:42:11;97162.55;;;27.63;38.03
74334;BME280;62753;40.394;-80.022;2023-08-06T11:44:36;97166.95;;;28.35;37.14
74334;BME280;62753;40.394;-80.022;2023-08-06T11:47:02;97162.44;;;28.32;37.20
74334;BME280;62753;40.394;-80.022;2023-08-06T11:49:38;97156.68;;;28.12;38.22
74334;BME280;62753;40.394;-80.022;2023-08-06T11:51:52;97150.74;;;28.00;37.32
74334;BME280;62753;40.394;-80.022;2023-08-06T11:56:42;97145.27;;;28.82;36.44
74334;BME280;62753;40.394;-80.022;2023-08-06T11:59:08;97136.44;;;28.44;36.47
74334;BME280;62753;40.394;-80.022;2023-08-06T12:01:35;97131.15;;;27.91;37.28
74334;BME280;62753;40.394;-80.022;2023-08-06T12:04:00;97128.48;;;28.15;37.30
74334;BME280;62753;40.394;-80.022;2023-08-06T12:06:27;97127.14;;;28.04;37.60
74334;BME280;62753;40.394;-80.022;2023-08-06T12:08:51;97126.27;;;27.76;38.13
74334;BME280;62753;40.394;-80.022;2023-08-06T12:11:16;97117.94;;;27.51;38.72
74334;BME280;62753;40.394;-80.022;2023-08-06T12:13:42;97114.96;;;27.80;38.44
74334;BME280;62753;40.394;-80.022;2023-08-06T12:16:07;97115.48;;;27.61;37.89
74334;BME280;62753;40.394;-80.022;2023-08-06T12:18:33;97118.43;;;27.67;37.94
74334;BME280;62753;40.394;-80.022;2023-08-06T12:20:58;97113.31;;;27.43;38.71
74334;BME280;62753;40.394;-80.022;2023-08-06T12:23:24;97108.07;;;26.79;40.51
74334;BME280;62753;40.394;-80.022;2023-08-06T12:25:50;97108.40;;;27.10;39.52
74334;BME280;62753;40.394;-80.022;2023-08-06T12:28:16;97108.70;;;26.96;39.44
74334;BME280;62753;40.394;-80.022;2023-08-06T12:30:42;97107.91;;;27.74;38.83
74334;BME280;62753;40.394;-80.022;2023-08-06T12:33:06;97110.14;;;27.37;38.83